sensor_id;sensor_type;location;lat;lon;timestamp;P1;durP1;ratioP1;P2;durP2;ratioP2
7045;SDS011;3564;53.326;10.356;2022-09-17T00:02:22;16.37;;;3.00;;
7045;SDS011;3564;53.326;10.356;2022-09-17T00:04:49;15.67;;;3.80;;
7045;SDS011;3564;53.326;10.356;2022-09-17T00:07:15;9.93;;;3.30;;
7045;SDS011;3564;53.326;10.356;2022-09-17T00:09:40;14.17;;;3.20;;
7045;SDS011;3564;53.326;10.356;2022-09-17T00:12:09;13.47;;;3.63;;
7045;SDS011;3564;53.326;10.356;2022-09-17T00:14:34;16.73;;;3.70;;
7045;SDS011;3564;53.326;10.356;2022-09-17T00:17:00;17.50;;;3.90;;
7045;SDS011;3564;53.326;10.356;2022-09-17T00:19:26;19.40;;;4.03;;
7045;SDS011;3564;53.326;10.356;2022-09-17T00:21:51;16.90;;;3.20;;
7045;SDS011;3564;53.326;10.356;2022-09-17T00:24:17;15.77;;;3.50;;
7045;SDS011;3564;53.326;10.356;2022-09-17T00:26:44;13.43;;;3.17;;
7045;SDS011;3564;53.326;10.356;2022-09-17T00:29:10;11.63;;;3.43;;
7045;SDS011;3564;53.326;10.356;2022-09-17T00:31:36;13.07;;;3.47;;
7045;SDS011;3564;53.326;10.356;2022-09-17T00:34:03;13.40;;;3.23;;
7045;SDS011;3564;53.326;10.356;2022-09-17T00:36:29;15.60;;;3.80;;
7045;SDS011;3564;53.326;10.356;2022-09-17T00:38:57;15.97;;;3.40;;
7045;SDS011;3564;53.326;10.356;2022-09-17T00:41:25;14.37;;;3.73;;
7045;SDS011;3564;53.326;10.356;2022-09-17T00:43:53;11.37;;;2.90;;
7045;SDS011;3564;53.326;10.356;2022-09-17T00:48:51;16.57;;;4.07;;
7045;SDS011;3564;53.326;10.356;2022-09-17T00:51:19;11.10;;;3.80;;
7045;SDS011;3564;53.326;10.356;2022-09-17T00:53:49;14.47;;;3.90;;
7045;SDS011;3564;53.326;10.356;2022-09-17T00:56:20;13.80;;;3.63;;
7045;SDS011;3564;53.326;10.356;2022-09-17T00:58:49;17.97;;;3.30;;
7045;SDS011;3564;53.326;10.356;2022-09-17T01:01:16;17.50;;;3.70;;
7045;SDS011;3564;53.326;10.356;2022-09-17T01:03:42;18.73;;;3.83;;
7045;SDS011;3564;53.326;10.356;2022-09-17T01:06:14;13.60;;;3.40;;
7045;SDS011;3564;53.326;10.356;2022-09-17T01:08:53;10.93;;;3.50;;
7045;SDS011;3564;53.326;10.356;2022-09-17T01:22:18;12.87;;;3.73;;
7045;SDS011;3564;53.326;10.356;2022-09-17T01:30:53;13.63;;;3.83;;
7045;SDS011;3564;53.326;10.356;2022-09-17T01:33:34;10.43;;;3.13;;
7045;SDS011;3564;53.326;10.356;2022-09-17T01:41:50;14.93;;;3.40;;
7045;SDS011;3564;53.326;10.356;2022-09-17T01:47:23;15.87;;;3.67;;
7045;SDS011;3564;53.326;10.356;2022-09-17T01:49:56;11.67;;;3.27;;
7045;SDS011;3564;53.326;10.356;2022-09-17T01:52:26;12.70;;;3.17;;
7045;SDS011;3564;53.326;10.356;2022-09-17T01:54:55;9.53;;;2.80;;
7045;SDS011;3564;53.326;10.356;2022-09-17T01:57:27;14.80;;;3.00;;
7045;SDS011;3564;53.326;10.356;2022-09-17T02:00:04;11.90;;;2.97;;
7045;SDS011;3564;53.326;10.356;2022-09-17T02:02:37;12.67;;;2.87;;
7045;SDS011;3564;53.326;10.356;2022-09-17T02:05:14;10.07;;;2.70;;
7045;SDS011;3564;53.326;10.356;2022-09-17T02:07:54;14.73;;;3.20;;
7045;SDS011;3564;53.326;10.356;2022-09-17T02:10:28;10.07;;;2.53;;
7045;SDS011;3564;53.326;10.356;2022-09-17T02:13:02;11.93;;;3.13;;
7045;SDS011;3564;53.326;10.356;2022-09-17T02:15:37;10.67;;;2.77;;
7045;SDS011;3564;53.326;10.356;2022-09-17T02:20:50;12.67;;;2.77;;
7045;SDS011;3564;53.326;10.356;2022-09-17T02:23:22;10.43;;;3.90;;
7045;SDS011;3564;53.326;10.356;2022-09-17T02:25:55;11.20;;;2.93;;
7045;SDS011;3564;53.326;10.356;2022-09-17T02:28:27;16.27;;;3.10;;
7045;SDS011;3564;53.326;10.356;2022-09-17T02:31:13;15.40;;;3.07;;
7045;SDS011;3564;53.326;10.356;2022-09-17T02:33:40;11.93;;;2.30;;
7045;SDS011;3564;53.326;10.356;2022-09-17T02:36:09;15.67;;;3.33;;
7045;SDS011;3564;53.326;10.356;2022-09-17T02:38:35;13.77;;;3.07;;
7045;SDS011;3564;53.326;10.356;2022-09-17T02:41:10;13.97;;;3.57;;
7045;SDS011;3564;53.326;10.356;2022-09-17T02:43:46;9.17;;;2.57;;
7045;SDS011;3564;53.326;10.356;2022-09-17T02:52:44;14.73;;;3.50;;
7045;SDS011;3564;53.326;10.356;2022-09-17T02:58:44;13.03;;;2.80;;
7045;SDS011;3564;53.326;10.356;2022-09-17T03:01:41;9.23;;;2.70;;
7045;SDS011;3564;53.326;10.356;2022-09-17T03:04:09;8.43;;;2.60;;
7045;SDS011;3564;53.326;10.356;2022-09-17T03:06:56;11.47;;;2.87;;
7045;SDS011;3564;53.326;10.356;2022-09-17T03:09:23;10.00;;;2.40;;
7045;SDS011;3564;53.326;10.356;2022-09-17T03:12:09;11.30;;;2.20;;
7045;SDS011;3564;53.326;10.356;2022-09-17T03:14:36;8.70;;;2.80;;
7045;SDS011;3564;53.326;10.356;2022-09-17T03:17:01;10.93;;;2.57;;
7045;SDS011;3564;53.326;10.356;2022-09-17T03:19:27;12.10;;;2.77;;
7045;SDS011;3564;53.326;10.356;2022-09-17T03:21:53;11.80;;;3.00;;
7045;SDS011;3564;53.326;10.356;2022-09-17T03:24:19;13.20;;;2.83;;
7045;SDS011;3564;53.326;10.356;2022-09-17T03:26:44;8.17;;;2.13;;
7045;SDS011;3564;53.326;10.356;2022-09-17T03:29:11;11.90;;;2.93;;
7045;SDS011;3564;53.326;10.356;2022-09-17T03:31:37;10.10;;;2.33;;
7045;SDS011;3564;53.326;10.356;2022-09-17T03:34:03;11.87;;;2.23;;
7045;SDS011;3564;53.326;10.356;2022-09-17T03:36:29;5.57;;;2.23;;
7045;SDS011;3564;53.326;10.356;2022-09-17T03:38:55;8.50;;;2.30;;
7045;SDS011;3564;53.326;10.356;2022-09-17T03:41:21;12.30;;;2.63;;
7045;SDS011;3564;53.326;10.356;2022-09-17T03:43:47;9.77;;;2.43;;
7045;SDS011;3564;53.326;10.356;2022-09-17T03:46:12;9.13;;;2.40;;
7045;SDS011;3564;53.326;10.356;2022-09-17T03:48:38;11.13;;;2.93;;
7045;SDS011;3564;53.326;10.356;2022-09-17T03:51:03;13.70;;;2.70;;
7045;SDS011;3564;53.326;10.356;2022-09-17T03:53:31;7.60;;;1.63;;
7045;SDS011;3564;53.326;10.356;2022-09-17T03:55:58;8.80;;;2.40;;
7045;SDS011;3564;53.326;10.356;2022-09-17T03:58:24;7.07;;;2.10;;
7045;SDS011;3564;53.326;10.356;2022-09-17T04:00:51;9.40;;;3.00;;
7045;SDS011;3564;53.326;10.356;2022-09-17T04:03:17;5.87;;;1.87;;
7045;SDS011;3564;53.326;10.356;2022-09-17T04:05:43;6.33;;;2.00;;
7045;SDS011;3564;53.326;10.356;2022-09-17T04:08:09;9.47;;;2.53;;
7045;SDS011;3564;53.326;10.356;2022-09-17T04:10:34;8.23;;;2.90;;
7045;SDS011;3564;53.326;10.356;2022-09-17T04:13:00;7.10;;;2.13;;
7045;SDS011;3564;53.326;10.356;2022-09-17T04:15:25;7.53;;;1.97;;
7045;SDS011;3564;53.326;10.356;2022-09-17T04:17:54;13.73;;;2.50;;
7045;SDS011;3564;53.326;10.356;2022-09-17T04:20:21;13.90;;;2.30;;
7045;SDS011;3564;53.326;10.356;2022-09-17T04:22:47;5.40;;;1.90;;
7045;SDS011;3564;53.326;10.356;2022-09-17T04:25:16;7.20;;;2.43;;
7045;SDS011;3564;53.326;10.356;2022-09-17T04:27:42;6.67;;;2.00;;
7045;SDS011;3564;53.326;10.356;2022-09-17T04:30:08;6.13;;;2.00;;
7045;SDS011;3564;53.326;10.356;2022-09-17T04:32:34;7.17;;;2.23;;
7045;SDS011;3564;53.326;10.356;2022-09-17T04:35:00;6.87;;;2.17;;
7045;SDS011;3564;53.326;10.356;2022-09-17T04:37:25;9.17;;;2.00;;
7045;SDS011;3564;53.326;10.356;2022-09-17T04:39:51;8.20;;;2.37;;
7045;SDS011;3564;53.326;10.356;2022-09-17T04:42:17;7.67;;;2.80;;
7045;SDS011;3564;53.326;10.356;2022-09-17T04:44:43;7.67;;;2.17;;
7045;SDS011;3564;53.326;10.356;2022-09-17T04:47:08;11.90;;;2.17;;
7045;SDS011;3564;53.326;10.356;2022-09-17T04:49:34;8.70;;;2.50;;
7045;SDS011;3564;53.326;10.356;2022-09-17T04:51:59;8.03;;;3.30;;
7045;SDS011;3564;53.326;10.356;2022-09-17T04:54:25;8.97;;;2.00;;
7045;SDS011;3564;53.326;10.356;2022-09-17T04:56:50;7.47;;;2.10;;
7045;SDS011;3564;53.326;10.356;2022-09-17T04:59:16;5.23;;;1.57;;
7045;SDS011;3564;53.326;10.356;2022-09-17T05:01:42;9.23;;;1.80;;
7045;SDS011;3564;53.326;10.356;2022-09-17T05:04:08;8.37;;;2.57;;
7045;SDS011;3564;53.326;10.356;2022-09-17T05:06:34;9.70;;;2.60;;
7045;SDS011;3564;53.326;10.356;2022-09-17T05:09:00;7.97;;;1.80;;
7045;SDS011;3564;53.326;10.356;2022-09-17T05:11:26;6.77;;;2.10;;
7045;SDS011;3564;53.326;10.356;2022-09-17T05:13:52;8.77;;;2.60;;
7045;SDS011;3564;53.326;10.356;2022-09-17T05:16:17;7.77;;;2.37;;
7045;SDS011;3564;53.326;10.356;2022-09-17T05:18:43;12.50;;;2.73;;
7045;SDS011;3564;53.326;10.356;2022-09-17T05:21:09;9.73;;;2.27;;
7045;SDS011;3564;53.326;10.356;2022-09-17T05:23:34;9.33;;;2.13;;
7045;SDS011;3564;53.326;10.356;2022-09-17T05:26:00;7.80;;;1.97;;
7045;SDS011;3564;53.326;10.356;2022-09-17T05:28:26;9.07;;;2.00;;
7045;SDS011;3564;53.326;10.356;2022-09-17T05:30:52;5.37;;;2.07;;
7045;SDS011;3564;53.326;10.356;2022-09-17T05:33:22;7.13;;;2.37;;
7045;SDS011;3564;53.326;10.356;2022-09-17T05:35:47;9.80;;;2.50;;
7045;SDS011;3564;53.326;10.356;2022-09-17T05:38:13;8.77;;;1.97;;
7045;SDS011;3564;53.326;10.356;2022-09-17T05:40:43;9.30;;;2.17;;
7045;SDS011;3564;53.326;10.356;2022-09-17T05:43:09;6.50;;;1.80;;
7045;SDS011;3564;53.326;10.356;2022-09-17T05:45:36;10.80;;;2.77;;
7045;SDS011;3564;53.326;10.356;2022-09-17T05:48:03;7.20;;;2.10;;
7045;SDS011;3564;53.326;10.356;2022-09-17T05:50:31;10.10;;;2.70;;
7045;SDS011;3564;53.326;10.356;2022-09-17T05:53:00;6.53;;;2.03;;
7045;SDS011;3564;53.326;10.356;2022-09-17T05:55:28;6.07;;;2.13;;
7045;SDS011;3564;53.326;10.356;2022-09-17T05:57:55;6.57;;;1.80;;
7045;SDS011;3564;53.326;10.356;2022-09-17T06:00:21;6.83;;;2.20;;
7045;SDS011;3564;53.326;10.356;2022-09-17T06:02:52;7.70;;;1.63;;
7045;SDS011;3564;53.326;10.356;2022-09-17T06:05:23;6.03;;;2.00;;
7045;SDS011;3564;53.326;10.356;2022-09-17T06:07:49;8.40;;;2.27;;
7045;SDS011;3564;53.326;10.356;2022-09-17T06:10:14;7.43;;;1.83;;
7045;SDS011;3564;53.326;10.356;2022-09-17T06:12:40;6.03;;;1.80;;
7045;SDS011;3564;53.326;10.356;2022-09-17T06:15:06;7.37;;;1.80;;
7045;SDS011;3564;53.326;10.356;2022-09-17T06:17:32;10.20;;;2.17;;
7045;SDS011;3564;53.326;10.356;2022-09-17T06:19:59;9.30;;;2.50;;
7045;SDS011;3564;53.326;10.356;2022-09-17T06:22:25;6.73;;;2.50;;
7045;SDS011;3564;53.326;10.356;2022-09-17T06:24:53;7.23;;;2.00;;
7045;SDS011;3564;53.326;10.356;2022-09-17T06:27:19;6.03;;;2.23;;
7045;SDS011;3564;53.326;10.356;2022-09-17T06:29:44;10.97;;;2.90;;
7045;SDS011;3564;53.326;10.356;2022-09-17T06:32:10;13.47;;;4.87;;
7045;SDS011;3564;53.326;10.356;2022-09-17T06:34:37;19.57;;;8.70;;
7045;SDS011;3564;53.326;10.356;2022-09-17T06:37:04;15.17;;;6.87;;
7045;SDS011;3564;53.326;10.356;2022-09-17T06:39:30;22.77;;;8.00;;
7045;SDS011;3564;53.326;10.356;2022-09-17T06:41:55;12.97;;;6.13;;
7045;SDS011;3564;53.326;10.356;2022-09-17T06:44:21;11.57;;;2.83;;
7045;SDS011;3564;53.326;10.356;2022-09-17T06:46:50;11.47;;;3.00;;
7045;SDS011;3564;53.326;10.356;2022-09-17T06:49:16;8.27;;;2.40;;
7045;SDS011;3564;53.326;10.356;2022-09-17T06:51:42;7.77;;;2.40;;
7045;SDS011;3564;53.326;10.356;2022-09-17T06:54:08;5.43;;;1.77;;
7045;SDS011;3564;53.326;10.356;2022-09-17T06:56:34;12.07;;;3.00;;
7045;SDS011;3564;53.326;10.356;2022-09-17T06:59:00;6.10;;;2.20;;
7045;SDS011;3564;53.326;10.356;2022-09-17T07:01:26;6.77;;;2.07;;
7045;SDS011;3564;53.326;10.356;2022-09-17T07:03:51;6.70;;;2.10;;
7045;SDS011;3564;53.326;10.356;2022-09-17T07:06:17;6.30;;;2.10;;
7045;SDS011;3564;53.326;10.356;2022-09-17T07:08:42;11.37;;;2.63;;
7045;SDS011;3564;53.326;10.356;2022-09-17T07:11:09;12.60;;;2.40;;
7045;SDS011;3564;53.326;10.356;2022-09-17T07:13:34;10.60;;;2.77;;
7045;SDS011;3564;53.326;10.356;2022-09-17T07:16:00;7.63;;;2.00;;
7045;SDS011;3564;53.326;10.356;2022-09-17T07:18:28;8.50;;;2.50;;
7045;SDS011;3564;53.326;10.356;2022-09-17T07:20:55;11.10;;;2.60;;
7045;SDS011;3564;53.326;10.356;2022-09-17T07:23:27;14.53;;;2.83;;
7045;SDS011;3564;53.326;10.356;2022-09-17T07:25:55;12.77;;;2.50;;
7045;SDS011;3564;53.326;10.356;2022-09-17T07:28:28;8.87;;;2.03;;
7045;SDS011;3564;53.326;10.356;2022-09-17T07:30:54;8.00;;;2.27;;
7045;SDS011;3564;53.326;10.356;2022-09-17T07:33:22;8.47;;;2.23;;
7045;SDS011;3564;53.326;10.356;2022-09-17T07:35:53;7.27;;;2.33;;
7045;SDS011;3564;53.326;10.356;2022-09-17T07:38:20;7.23;;;2.63;;
7045;SDS011;3564;53.326;10.356;2022-09-17T07:43:23;6.40;;;1.80;;
7045;SDS011;3564;53.326;10.356;2022-09-17T07:45:50;6.37;;;2.07;;
7045;SDS011;3564;53.326;10.356;2022-09-17T07:48:17;7.43;;;2.23;;
7045;SDS011;3564;53.326;10.356;2022-09-17T07:50:43;8.90;;;2.10;;
7045;SDS011;3564;53.326;10.356;2022-09-17T07:53:08;10.57;;;2.60;;
7045;SDS011;3564;53.326;10.356;2022-09-17T07:55:34;10.47;;;2.83;;
7045;SDS011;3564;53.326;10.356;2022-09-17T07:57:59;9.10;;;2.17;;
7045;SDS011;3564;53.326;10.356;2022-09-17T08:00:28;11.03;;;2.43;;
7045;SDS011;3564;53.326;10.356;2022-09-17T08:02:54;6.17;;;1.90;;
7045;SDS011;3564;53.326;10.356;2022-09-17T08:05:20;8.47;;;2.70;;
7045;SDS011;3564;53.326;10.356;2022-09-17T08:07:50;14.27;;;2.10;;
7045;SDS011;3564;53.326;10.356;2022-09-17T08:10:17;9.03;;;2.17;;
7045;SDS011;3564;53.326;10.356;2022-09-17T08:12:47;9.97;;;2.20;;
7045;SDS011;3564;53.326;10.356;2022-09-17T08:15:14;10.73;;;2.57;;
7045;SDS011;3564;53.326;10.356;2022-09-17T08:17:44;6.63;;;1.93;;
7045;SDS011;3564;53.326;10.356;2022-09-17T08:20:11;7.70;;;2.13;;
7045;SDS011;3564;53.326;10.356;2022-09-17T08:22:37;5.03;;;1.70;;
7045;SDS011;3564;53.326;10.356;2022-09-17T08:25:04;6.77;;;1.83;;
7045;SDS011;3564;53.326;10.356;2022-09-17T08:27:34;8.07;;;2.10;;
7045;SDS011;3564;53.326;10.356;2022-09-17T08:30:04;9.00;;;2.63;;
7045;SDS011;3564;53.326;10.356;2022-09-17T08:32:31;8.93;;;1.87;;
7045;SDS011;3564;53.326;10.356;2022-09-17T08:34:57;8.63;;;3.07;;
7045;SDS011;3564;53.326;10.356;2022-09-17T08:37:22;8.10;;;2.07;;
7045;SDS011;3564;53.326;10.356;2022-09-17T08:39:48;5.40;;;2.30;;
7045;SDS011;3564;53.326;10.356;2022-09-17T08:42:22;9.40;;;2.07;;
7045;SDS011;3564;53.326;10.356;2022-09-17T08:45:08;10.50;;;2.40;;
7045;SDS011;3564;53.326;10.356;2022-09-17T08:47:38;8.37;;;1.80;;
7045;SDS011;3564;53.326;10.356;2022-09-17T08:55:49;5.63;;;1.40;;
7045;SDS011;3564;53.326;10.356;2022-09-17T09:01:11;8.13;;;2.10;;
7045;SDS011;3564;53.326;10.356;2022-09-17T09:06:25;5.40;;;1.80;;
7045;SDS011;3564;53.326;10.356;2022-09-17T09:09:02;6.93;;;2.00;;
7045;SDS011;3564;53.326;10.356;2022-09-17T09:11:31;4.80;;;1.90;;
7045;SDS011;3564;53.326;10.356;2022-09-17T09:14:10;5.43;;;1.80;;
7045;SDS011;3564;53.326;10.356;2022-09-17T09:16:46;6.97;;;1.73;;
7045;SDS011;3564;53.326;10.356;2022-09-17T09:19:39;7.87;;;1.87;;
7045;SDS011;3564;53.326;10.356;2022-09-17T09:22:27;8.93;;;2.10;;
7045;SDS011;3564;53.326;10.356;2022-09-17T09:25:04;6.13;;;1.63;;
7045;SDS011;3564;53.326;10.356;2022-09-17T09:30:45;6.73;;;3.30;;
7045;SDS011;3564;53.326;10.356;2022-09-17T09:33:31;3.83;;;1.57;;
7045;SDS011;3564;53.326;10.356;2022-09-17T09:36:01;4.60;;;1.73;;
7045;SDS011;3564;53.326;10.356;2022-09-17T09:38:34;5.47;;;1.90;;
7045;SDS011;3564;53.326;10.356;2022-09-17T09:41:33;5.43;;;2.07;;
7045;SDS011;3564;53.326;10.356;2022-09-17T09:44:11;6.80;;;2.63;;
7045;SDS011;3564;53.326;10.356;2022-09-17T09:52:01;5.77;;;1.93;;
7045;SDS011;3564;53.326;10.356;2022-09-17T09:54:41;5.83;;;2.00;;
7045;SDS011;3564;53.326;10.356;2022-09-17T09:57:16;4.70;;;1.50;;
7045;SDS011;3564;53.326;10.356;2022-09-17T09:59:46;8.20;;;2.07;;
7045;SDS011;3564;53.326;10.356;2022-09-17T10:02:11;5.90;;;1.60;;
7045;SDS011;3564;53.326;10.356;2022-09-17T10:04:38;4.97;;;2.13;;
7045;SDS011;3564;53.326;10.356;2022-09-17T10:07:08;1.70;;;1.10;;
7045;SDS011;3564;53.326;10.356;2022-09-17T10:09:36;1.50;;;1.20;;
7045;SDS011;3564;53.326;10.356;2022-09-17T10:14:31;2.40;;;1.13;;
7045;SDS011;3564;53.326;10.356;2022-09-17T10:22:36;2.20;;;1.00;;
7045;SDS011;3564;53.326;10.356;2022-09-17T10:25:05;1.80;;;1.20;;
7045;SDS011;3564;53.326;10.356;2022-09-17T10:27:44;1.90;;;0.87;;
7045;SDS011;3564;53.326;10.356;2022-09-17T10:30:13;5.93;;;1.77;;
7045;SDS011;3564;53.326;10.356;2022-09-17T10:32:41;2.87;;;1.00;;
7045;SDS011;3564;53.326;10.356;2022-09-17T10:37:46;3.33;;;1.00;;
7045;SDS011;3564;53.326;10.356;2022-09-17T10:42:45;1.10;;;1.03;;
7045;SDS011;3564;53.326;10.356;2022-09-17T10:45:27;3.07;;;1.10;;
7045;SDS011;3564;53.326;10.356;2022-09-17T10:47:57;2.03;;;1.00;;
7045;SDS011;3564;53.326;10.356;2022-09-17T10:50:33;1.57;;;1.17;;
7045;SDS011;3564;53.326;10.356;2022-09-17T10:53:01;3.37;;;1.20;;
7045;SDS011;3564;53.326;10.356;2022-09-17T10:55:35;1.00;;;0.90;;
7045;SDS011;3564;53.326;10.356;2022-09-17T11:20:16;2.83;;;1.10;;
7045;SDS011;3564;53.326;10.356;2022-09-17T11:25:58;0.70;;;0.70;;
7045;SDS011;3564;53.326;10.356;2022-09-17T11:31:44;1.70;;;0.90;;
7045;SDS011;3564;53.326;10.356;2022-09-17T11:37:13;3.13;;;0.90;;
7045;SDS011;3564;53.326;10.356;2022-09-17T11:42:44;2.70;;;1.13;;
7045;SDS011;3564;53.326;10.356;2022-09-17T11:45:23;5.23;;;1.27;;
7045;SDS011;3564;53.326;10.356;2022-09-17T11:48:02;2.40;;;1.47;;
7045;SDS011;3564;53.326;10.356;2022-09-17T11:56:04;2.57;;;1.07;;
7045;SDS011;3564;53.326;10.356;2022-09-17T12:06:58;4.83;;;1.50;;
7045;SDS011;3564;53.326;10.356;2022-09-17T12:09:47;2.47;;;1.20;;
7045;SDS011;3564;53.326;10.356;2022-09-17T12:12:18;4.23;;;1.30;;
7045;SDS011;3564;53.326;10.356;2022-09-17T12:14:58;4.00;;;1.57;;
7045;SDS011;3564;53.326;10.356;2022-09-17T12:17:51;5.67;;;1.63;;
7045;SDS011;3564;53.326;10.356;2022-09-17T12:20:33;3.87;;;1.30;;
7045;SDS011;3564;53.326;10.356;2022-09-17T12:23:04;4.60;;;1.30;;
7045;SDS011;3564;53.326;10.356;2022-09-17T12:25:44;4.33;;;2.03;;
7045;SDS011;3564;53.326;10.356;2022-09-17T12:28:25;4.97;;;1.20;;
7045;SDS011;3564;53.326;10.356;2022-09-17T12:31:01;2.90;;;1.70;;
7045;SDS011;3564;53.326;10.356;2022-09-17T12:33:36;4.17;;;1.50;;
7045;SDS011;3564;53.326;10.356;2022-09-17T12:38:57;4.50;;;1.40;;
7045;SDS011;3564;53.326;10.356;2022-09-17T13:10:02;5.97;;;2.07;;
7045;SDS011;3564;53.326;10.356;2022-09-17T13:18:57;5.10;;;1.70;;
7045;SDS011;3564;53.326;10.356;2022-09-17T13:21:31;2.80;;;1.30;;
7045;SDS011;3564;53.326;10.356;2022-09-17T13:24:17;4.33;;;1.30;;
7045;SDS011;3564;53.326;10.356;2022-09-17T13:26:45;3.23;;;1.50;;
7045;SDS011;3564;53.326;10.356;2022-09-17T13:29:12;4.63;;;1.97;;
7045;SDS011;3564;53.326;10.356;2022-09-17T13:37:36;4.40;;;1.60;;
7045;SDS011;3564;53.326;10.356;2022-09-17T13:42:50;3.10;;;1.23;;
7045;SDS011;3564;53.326;10.356;2022-09-17T13:45:21;3.20;;;1.50;;
7045;SDS011;3564;53.326;10.356;2022-09-17T13:47:57;5.30;;;1.40;;
7045;SDS011;3564;53.326;10.356;2022-09-17T13:55:41;2.33;;;1.40;;
7045;SDS011;3564;53.326;10.356;2022-09-17T13:58:24;4.27;;;1.40;;
7045;SDS011;3564;53.326;10.356;2022-09-17T14:24:34;2.83;;;1.20;;
7045;SDS011;3564;53.326;10.356;2022-09-17T14:27:12;5.47;;;1.47;;
7045;SDS011;3564;53.326;10.356;2022-09-17T14:30:38;3.43;;;1.40;;
7045;SDS011;3564;53.326;10.356;2022-09-17T14:33:02;3.43;;;1.30;;
7045;SDS011;3564;53.326;10.356;2022-09-17T14:38:13;2.33;;;1.23;;
7045;SDS011;3564;53.326;10.356;2022-09-17T14:46:19;5.20;;;1.40;;
7045;SDS011;3564;53.326;10.356;2022-09-17T14:48:48;3.20;;;1.47;;
7045;SDS011;3564;53.326;10.356;2022-09-17T14:56:14;4.20;;;1.50;;
7045;SDS011;3564;53.326;10.356;2022-09-17T14:58:46;4.87;;;1.73;;
7045;SDS011;3564;53.326;10.356;2022-09-17T15:01:26;4.03;;;1.43;;
7045;SDS011;3564;53.326;10.356;2022-09-17T15:06:47;3.63;;;1.50;;
7045;SDS011;3564;53.326;10.356;2022-09-17T15:09:21;7.17;;;1.37;;
7045;SDS011;3564;53.326;10.356;2022-09-17T15:11:50;3.17;;;1.70;;
7045;SDS011;3564;53.326;10.356;2022-09-17T15:14:20;5.67;;;1.83;;
7045;SDS011;3564;53.326;10.356;2022-09-17T15:16:53;5.20;;;2.10;;
7045;SDS011;3564;53.326;10.356;2022-09-17T15:19:42;3.90;;;2.20;;
7045;SDS011;3564;53.326;10.356;2022-09-17T15:22:08;5.77;;;2.10;;
7045;SDS011;3564;53.326;10.356;2022-09-17T15:24:42;8.17;;;1.80;;
7045;SDS011;3564;53.326;10.356;2022-09-17T15:27:12;5.20;;;1.90;;
7045;SDS011;3564;53.326;10.356;2022-09-17T15:29:47;3.93;;;1.70;;
7045;SDS011;3564;53.326;10.356;2022-09-17T15:32:20;4.03;;;1.97;;
7045;SDS011;3564;53.326;10.356;2022-09-17T15:34:46;5.80;;;2.17;;
7045;SDS011;3564;53.326;10.356;2022-09-17T15:37:43;4.40;;;1.80;;
7045;SDS011;3564;53.326;10.356;2022-09-17T15:40:13;4.97;;;1.77;;
7045;SDS011;3564;53.326;10.356;2022-09-17T15:42:54;2.10;;;1.10;;
7045;SDS011;3564;53.326;10.356;2022-09-17T15:45:27;5.30;;;1.20;;
7045;SDS011;3564;53.326;10.356;2022-09-17T15:48:01;3.17;;;2.00;;
7045;SDS011;3564;53.326;10.356;2022-09-17T15:50:31;4.90;;;2.97;;
7045;SDS011;3564;53.326;10.356;2022-09-17T15:55:43;4.37;;;2.33;;
7045;SDS011;3564;53.326;10.356;2022-09-17T15:58:29;4.07;;;3.00;;
7045;SDS011;3564;53.326;10.356;2022-09-17T16:06:50;2.30;;;1.10;;
7045;SDS011;3564;53.326;10.356;2022-09-17T16:08:56;2.80;;;1.40;;
7045;SDS011;3564;53.326;10.356;2022-09-17T16:11:24;4.23;;;1.37;;
7045;SDS011;3564;53.326;10.356;2022-09-17T16:13:55;4.10;;;1.77;;
7045;SDS011;3564;53.326;10.356;2022-09-17T16:16:23;3.07;;;1.50;;
7045;SDS011;3564;53.326;10.356;2022-09-17T16:19:00;4.70;;;1.60;;
7045;SDS011;3564;53.326;10.356;2022-09-17T16:21:26;1.63;;;1.03;;
7045;SDS011;3564;53.326;10.356;2022-09-17T16:23:53;3.03;;;1.43;;
7045;SDS011;3564;53.326;10.356;2022-09-17T16:26:23;4.07;;;1.33;;
7045;SDS011;3564;53.326;10.356;2022-09-17T16:28:53;3.93;;;1.37;;
7045;SDS011;3564;53.326;10.356;2022-09-17T16:31:23;3.37;;;1.10;;
7045;SDS011;3564;53.326;10.356;2022-09-17T16:33:49;2.40;;;1.30;;
7045;SDS011;3564;53.326;10.356;2022-09-17T16:36:15;4.33;;;1.60;;
7045;SDS011;3564;53.326;10.356;2022-09-17T16:38:41;3.83;;;1.40;;
7045;SDS011;3564;53.326;10.356;2022-09-17T16:41:07;3.63;;;1.73;;
7045;SDS011;3564;53.326;10.356;2022-09-17T16:43:33;4.13;;;1.70;;
7045;SDS011;3564;53.326;10.356;2022-09-17T16:48:25;3.37;;;1.40;;
7045;SDS011;3564;53.326;10.356;2022-09-17T16:50:54;2.50;;;1.40;;
7045;SDS011;3564;53.326;10.356;2022-09-17T16:53:19;3.53;;;1.50;;
7045;SDS011;3564;53.326;10.356;2022-09-17T16:55:46;1.43;;;1.10;;
7045;SDS011;3564;53.326;10.356;2022-09-17T16:58:12;2.47;;;1.40;;
7045;SDS011;3564;53.326;10.356;2022-09-17T17:00:40;3.23;;;1.43;;
7045;SDS011;3564;53.326;10.356;2022-09-17T17:03:06;2.97;;;1.47;;
7045;SDS011;3564;53.326;10.356;2022-09-17T17:05:35;2.60;;;1.30;;
7045;SDS011;3564;53.326;10.356;2022-09-17T17:08:02;4.10;;;1.60;;
7045;SDS011;3564;53.326;10.356;2022-09-17T17:10:27;4.73;;;1.70;;
7045;SDS011;3564;53.326;10.356;2022-09-17T17:12:53;3.53;;;1.50;;
7045;SDS011;3564;53.326;10.356;2022-09-17T17:15:18;2.83;;;1.40;;
7045;SDS011;3564;53.326;10.356;2022-09-17T17:17:45;4.60;;;1.50;;
7045;SDS011;3564;53.326;10.356;2022-09-17T17:20:11;4.40;;;1.40;;
7045;SDS011;3564;53.326;10.356;2022-09-17T17:22:38;2.83;;;1.20;;
7045;SDS011;3564;53.326;10.356;2022-09-17T17:25:05;6.63;;;2.40;;
7045;SDS011;3564;53.326;10.356;2022-09-17T17:27:33;3.07;;;1.57;;
7045;SDS011;3564;53.326;10.356;2022-09-17T17:29:59;1.97;;;1.27;;
7045;SDS011;3564;53.326;10.356;2022-09-17T17:32:30;3.47;;;1.60;;
7045;SDS011;3564;53.326;10.356;2022-09-17T17:34:56;3.10;;;1.63;;
7045;SDS011;3564;53.326;10.356;2022-09-17T17:37:22;2.00;;;1.20;;
7045;SDS011;3564;53.326;10.356;2022-09-17T17:39:48;2.37;;;1.30;;
7045;SDS011;3564;53.326;10.356;2022-09-17T17:42:15;2.70;;;1.60;;
7045;SDS011;3564;53.326;10.356;2022-09-17T17:44:40;4.17;;;1.73;;
7045;SDS011;3564;53.326;10.356;2022-09-17T17:47:06;2.83;;;1.70;;
7045;SDS011;3564;53.326;10.356;2022-09-17T17:49:32;2.20;;;1.40;;
7045;SDS011;3564;53.326;10.356;2022-09-17T17:51:58;4.27;;;1.70;;
7045;SDS011;3564;53.326;10.356;2022-09-17T17:54:25;4.73;;;2.30;;
7045;SDS011;3564;53.326;10.356;2022-09-17T17:56:52;2.67;;;1.57;;
7045;SDS011;3564;53.326;10.356;2022-09-17T17:59:19;1.40;;;1.20;;
7045;SDS011;3564;53.326;10.356;2022-09-17T18:01:44;2.20;;;1.40;;
7045;SDS011;3564;53.326;10.356;2022-09-17T18:04:10;3.77;;;1.57;;
7045;SDS011;3564;53.326;10.356;2022-09-17T18:06:36;3.10;;;1.67;;
7045;SDS011;3564;53.326;10.356;2022-09-17T18:09:02;5.40;;;1.93;;
7045;SDS011;3564;53.326;10.356;2022-09-17T18:11:28;2.83;;;1.50;;
7045;SDS011;3564;53.326;10.356;2022-09-17T18:13:55;3.47;;;1.67;;
7045;SDS011;3564;53.326;10.356;2022-09-17T18:16:22;5.63;;;2.13;;
7045;SDS011;3564;53.326;10.356;2022-09-17T18:18:48;5.77;;;1.90;;
7045;SDS011;3564;53.326;10.356;2022-09-17T18:21:15;5.03;;;1.57;;
7045;SDS011;3564;53.326;10.356;2022-09-17T18:23:44;3.27;;;1.87;;
7045;SDS011;3564;53.326;10.356;2022-09-17T18:26:11;6.13;;;2.20;;
7045;SDS011;3564;53.326;10.356;2022-09-17T18:28:42;4.37;;;1.93;;
7045;SDS011;3564;53.326;10.356;2022-09-17T18:33:43;4.60;;;1.97;;
7045;SDS011;3564;53.326;10.356;2022-09-17T18:36:09;7.03;;;2.23;;
7045;SDS011;3564;53.326;10.356;2022-09-17T18:38:35;6.70;;;2.20;;
7045;SDS011;3564;53.326;10.356;2022-09-17T18:41:08;6.77;;;1.87;;
7045;SDS011;3564;53.326;10.356;2022-09-17T18:43:35;7.97;;;2.00;;
7045;SDS011;3564;53.326;10.356;2022-09-17T18:46:01;4.43;;;2.07;;
7045;SDS011;3564;53.326;10.356;2022-09-17T18:48:28;3.93;;;1.90;;
7045;SDS011;3564;53.326;10.356;2022-09-17T18:50:58;4.03;;;1.77;;
7045;SDS011;3564;53.326;10.356;2022-09-17T18:53:26;3.87;;;1.70;;
7045;SDS011;3564;53.326;10.356;2022-09-17T18:55:53;6.13;;;2.40;;
7045;SDS011;3564;53.326;10.356;2022-09-17T18:58:23;3.83;;;1.70;;
7045;SDS011;3564;53.326;10.356;2022-09-17T19:00:49;7.60;;;2.20;;
7045;SDS011;3564;53.326;10.356;2022-09-17T19:03:14;3.27;;;1.60;;